sensor_id;sensor_type;location;lat;lon;timestamp;P1;durP1;ratioP1;P2;durP2;ratioP2
28772;SDS011;15925;51.222;5.678;2022-12-07T00:04:10;11.97;;;3.53;;
28772;SDS011;15925;51.222;5.678;2022-12-07T00:06:38;11.15;;;3.85;;
28772;SDS011;15925;51.222;5.678;2022-12-07T00:09:06;6.70;;;4.32;;
28772;SDS011;15925;51.222;5.678;2022-12-07T00:11:34;7.38;;;3.38;;
28772;SDS011;15925;51.222;5.678;2022-12-07T00:14:01;6.53;;;4.43;;
28772;SDS011;15925;51.222;5.678;2022-12-07T00:16:30;11.93;;;4.57;;
28772;SDS011;15925;51.222;5.678;2022-12-07T00:18:57;8.02;;;4.50;;
28772;SDS011;15925;51.222;5.678;2022-12-07T00:21:27;7.38;;;3.50;;
28772;SDS011;15925;51.222;5.678;2022-12-07T00:23:54;8.15;;;4.57;;
28772;SDS011;15925;51.222;5.678;2022-12-07T00:26:22;6.43;;;2.80;;
28772;SDS011;15925;51.222;5.678;2022-12-07T00:28:51;7.97;;;4.07;;
28772;SDS011;15925;51.222;5.678;2022-12-07T00:31:19;13.70;;;4.72;;
28772;SDS011;15925;51.222;5.678;2022-12-07T00:33:47;9.40;;;4.03;;
28772;SDS011;15925;51.222;5.678;2022-12-07T00:36:14;5.93;;;3.83;;
28772;SDS011;15925;51.222;5.678;2022-12-07T00:38:42;8.75;;;3.75;;
28772;SDS011;15925;51.222;5.678;2022-12-07T00:43:41;6.05;;;3.40;;
28772;SDS011;15925;51.222;5.678;2022-12-07T00:48:33;8.23;;;4.22;;
28772;SDS011;15925;51.222;5.678;2022-12-07T00:51:00;13.55;;;5.35;;
28772;SDS011;15925;51.222;5.678;2022-12-07T00:53:26;7.43;;;4.25;;
28772;SDS011;15925;51.222;5.678;2022-12-07T00:55:53;11.20;;;3.78;;
28772;SDS011;15925;51.222;5.678;2022-12-07T00:58:19;9.85;;;4.13;;
28772;SDS011;15925;51.222;5.678;2022-12-07T01:00:45;10.07;;;4.68;;
28772;SDS011;15925;51.222;5.678;2022-12-07T01:03:11;15.75;;;5.13;;
28772;SDS011;15925;51.222;5.678;2022-12-07T01:05:39;8.93;;;4.55;;
28772;SDS011;15925;51.222;5.678;2022-12-07T01:08:05;10.25;;;4.68;;
28772;SDS011;15925;51.222;5.678;2022-12-07T01:10:31;5.60;;;4.13;;
28772;SDS011;15925;51.222;5.678;2022-12-07T01:12:57;12.38;;;4.15;;
28772;SDS011;15925;51.222;5.678;2022-12-07T01:15:24;15.68;;;5.38;;
28772;SDS011;15925;51.222;5.678;2022-12-07T01:17:51;8.80;;;4.38;;
28772;SDS011;15925;51.222;5.678;2022-12-07T01:20:17;8.95;;;4.35;;
28772;SDS011;15925;51.222;5.678;2022-12-07T01:22:43;22.03;;;4.77;;
28772;SDS011;15925;51.222;5.678;2022-12-07T01:25:09;8.80;;;4.57;;
28772;SDS011;15925;51.222;5.678;2022-12-07T01:27:37;12.07;;;4.68;;
28772;SDS011;15925;51.222;5.678;2022-12-07T01:30:04;14.30;;;5.32;;
28772;SDS011;15925;51.222;5.678;2022-12-07T01:32:31;18.83;;;5.15;;
28772;SDS011;15925;51.222;5.678;2022-12-07T01:34:56;13.00;;;5.00;;
28772;SDS011;15925;51.222;5.678;2022-12-07T01:37:22;7.53;;;3.90;;
28772;SDS011;15925;51.222;5.678;2022-12-07T01:39:49;9.75;;;5.35;;
28772;SDS011;15925;51.222;5.678;2022-12-07T01:42:15;15.43;;;4.93;;
28772;SDS011;15925;51.222;5.678;2022-12-07T01:47:52;15.57;;;6.28;;
28772;SDS011;15925;51.222;5.678;2022-12-07T01:50:20;13.88;;;4.95;;
28772;SDS011;15925;51.222;5.678;2022-12-07T01:52:49;6.47;;;3.53;;
28772;SDS011;15925;51.222;5.678;2022-12-07T01:55:17;7.90;;;4.93;;
28772;SDS011;15925;51.222;5.678;2022-12-07T01:57:45;11.43;;;5.00;;
28772;SDS011;15925;51.222;5.678;2022-12-07T02:00:15;6.32;;;4.35;;
28772;SDS011;15925;51.222;5.678;2022-12-07T02:05:30;11.23;;;5.22;;
28772;SDS011;15925;51.222;5.678;2022-12-07T02:07:58;6.63;;;3.85;;
28772;SDS011;15925;51.222;5.678;2022-12-07T02:10:25;12.50;;;4.38;;
28772;SDS011;15925;51.222;5.678;2022-12-07T02:12:54;9.48;;;4.80;;
28772;SDS011;15925;51.222;5.678;2022-12-07T02:15:44;9.68;;;5.72;;
28772;SDS011;15925;51.222;5.678;2022-12-07T02:18:22;9.52;;;5.30;;
28772;SDS011;15925;51.222;5.678;2022-12-07T02:20:58;20.38;;;5.65;;
28772;SDS011;15925;51.222;5.678;2022-12-07T02:26:42;8.05;;;4.05;;
28772;SDS011;15925;51.222;5.678;2022-12-07T02:31:53;13.50;;;4.82;;
28772;SDS011;15925;51.222;5.678;2022-12-07T02:34:59;8.75;;;4.32;;
28772;SDS011;15925;51.222;5.678;2022-12-07T02:37:29;14.50;;;4.55;;
28772;SDS011;15925;51.222;5.678;2022-12-07T02:39:59;9.43;;;4.35;;
28772;SDS011;15925;51.222;5.678;2022-12-07T02:42:40;11.18;;;3.67;;
28772;SDS011;15925;51.222;5.678;2022-12-07T02:45:10;9.25;;;4.68;;
28772;SDS011;15925;51.222;5.678;2022-12-07T02:47:40;10.50;;;4.32;;
28772;SDS011;15925;51.222;5.678;2022-12-07T02:50:08;8.98;;;4.68;;
28772;SDS011;15925;51.222;5.678;2022-12-07T02:52:34;14.50;;;4.85;;
28772;SDS011;15925;51.222;5.678;2022-12-07T02:55:00;9.43;;;4.83;;
28772;SDS011;15925;51.222;5.678;2022-12-07T02:57:45;8.98;;;4.13;;
28772;SDS011;15925;51.222;5.678;2022-12-07T03:00:20;7.32;;;3.67;;
28772;SDS011;15925;51.222;5.678;2022-12-07T03:03:00;16.48;;;4.43;;
28772;SDS011;15925;51.222;5.678;2022-12-07T03:10:58;7.88;;;5.30;;
28772;SDS011;15925;51.222;5.678;2022-12-07T03:16:25;11.05;;;5.60;;
28772;SDS011;15925;51.222;5.678;2022-12-07T03:18:55;8.80;;;3.72;;
28772;SDS011;15925;51.222;5.678;2022-12-07T03:21:26;9.15;;;3.70;;
28772;SDS011;15925;51.222;5.678;2022-12-07T03:23:56;8.00;;;4.75;;
28772;SDS011;15925;51.222;5.678;2022-12-07T03:26:28;6.00;;;3.50;;
28772;SDS011;15925;51.222;5.678;2022-12-07T03:29:01;6.20;;;3.28;;
28772;SDS011;15925;51.222;5.678;2022-12-07T03:31:32;8.40;;;4.15;;
28772;SDS011;15925;51.222;5.678;2022-12-07T03:34:45;7.72;;;4.35;;
28772;SDS011;15925;51.222;5.678;2022-12-07T03:39:33;7.63;;;3.53;;
28772;SDS011;15925;51.222;5.678;2022-12-07T03:42:01;5.13;;;2.92;;
28772;SDS011;15925;51.222;5.678;2022-12-07T03:44:30;9.07;;;3.75;;
28772;SDS011;15925;51.222;5.678;2022-12-07T03:49:51;5.20;;;3.30;;
28772;SDS011;15925;51.222;5.678;2022-12-07T03:52:32;7.38;;;3.35;;
28772;SDS011;15925;51.222;5.678;2022-12-07T03:57:55;6.28;;;3.38;;
28772;SDS011;15925;51.222;5.678;2022-12-07T04:00:24;6.28;;;3.85;;
28772;SDS011;15925;51.222;5.678;2022-12-07T04:02:51;5.93;;;3.22;;
28772;SDS011;15925;51.222;5.678;2022-12-07T04:05:17;7.43;;;2.50;;
28772;SDS011;15925;51.222;5.678;2022-12-07T04:07:44;9.57;;;4.32;;
28772;SDS011;15925;51.222;5.678;2022-12-07T04:10:10;4.77;;;2.93;;
28772;SDS011;15925;51.222;5.678;2022-12-07T04:12:36;6.68;;;3.85;;
28772;SDS011;15925;51.222;5.678;2022-12-07T04:15:02;19.60;;;3.77;;
28772;SDS011;15925;51.222;5.678;2022-12-07T04:19:54;5.68;;;3.58;;
28772;SDS011;15925;51.222;5.678;2022-12-07T04:22:20;18.37;;;3.57;;
28772;SDS011;15925;51.222;5.678;2022-12-07T04:24:46;8.07;;;2.47;;
28772;SDS011;15925;51.222;5.678;2022-12-07T04:27:11;5.30;;;2.67;;
28772;SDS011;15925;51.222;5.678;2022-12-07T04:29:37;4.63;;;2.87;;
28772;SDS011;15925;51.222;5.678;2022-12-07T04:32:03;17.17;;;3.40;;
28772;SDS011;15925;51.222;5.678;2022-12-07T04:34:29;5.13;;;3.07;;
28772;SDS011;15925;51.222;5.678;2022-12-07T04:36:55;5.37;;;2.47;;
28772;SDS011;15925;51.222;5.678;2022-12-07T04:39:24;3.57;;;2.27;;
28772;SDS011;15925;51.222;5.678;2022-12-07T04:41:52;4.22;;;2.40;;
28772;SDS011;15925;51.222;5.678;2022-12-07T04:44:19;15.25;;;4.72;;
28772;SDS011;15925;51.222;5.678;2022-12-07T04:46:46;13.20;;;3.78;;
28772;SDS011;15925;51.222;5.678;2022-12-07T04:49:12;6.75;;;2.78;;
28772;SDS011;15925;51.222;5.678;2022-12-07T04:51:39;5.55;;;2.97;;
28772;SDS011;15925;51.222;5.678;2022-12-07T04:54:05;6.25;;;3.50;;
28772;SDS011;15925;51.222;5.678;2022-12-07T04:56:32;8.15;;;3.45;;
28772;SDS011;15925;51.222;5.678;2022-12-07T04:58:59;9.77;;;3.38;;
28772;SDS011;15925;51.222;5.678;2022-12-07T05:01:25;11.07;;;3.40;;
28772;SDS011;15925;51.222;5.678;2022-12-07T05:03:51;7.43;;;3.13;;
28772;SDS011;15925;51.222;5.678;2022-12-07T05:06:17;14.20;;;3.97;;
28772;SDS011;15925;51.222;5.678;2022-12-07T05:08:43;10.98;;;2.60;;
28772;SDS011;15925;51.222;5.678;2022-12-07T05:11:09;8.32;;;3.15;;
28772;SDS011;15925;51.222;5.678;2022-12-07T05:13:55;5.30;;;2.90;;
28772;SDS011;15925;51.222;5.678;2022-12-07T05:16:22;11.20;;;4.07;;
28772;SDS011;15925;51.222;5.678;2022-12-07T05:18:47;5.63;;;3.10;;
28772;SDS011;15925;51.222;5.678;2022-12-07T05:21:13;5.27;;;3.77;;
28772;SDS011;15925;51.222;5.678;2022-12-07T05:23:39;3.90;;;2.60;;
28772;SDS011;15925;51.222;5.678;2022-12-07T05:26:05;7.37;;;3.37;;
28772;SDS011;15925;51.222;5.678;2022-12-07T05:28:30;5.47;;;3.13;;
28772;SDS011;15925;51.222;5.678;2022-12-07T05:30:56;5.15;;;3.10;;
28772;SDS011;15925;51.222;5.678;2022-12-07T05:33:22;10.43;;;3.30;;
28772;SDS011;15925;51.222;5.678;2022-12-07T05:35:48;6.87;;;3.23;;
28772;SDS011;15925;51.222;5.678;2022-12-07T05:38:14;6.13;;;3.33;;
28772;SDS011;15925;51.222;5.678;2022-12-07T05:40:39;22.43;;;3.50;;
28772;SDS011;15925;51.222;5.678;2022-12-07T05:43:05;4.40;;;3.10;;
28772;SDS011;15925;51.222;5.678;2022-12-07T05:45:31;6.53;;;3.10;;
28772;SDS011;15925;51.222;5.678;2022-12-07T05:47:57;4.53;;;3.30;;
28772;SDS011;15925;51.222;5.678;2022-12-07T05:50:22;5.03;;;2.43;;
28772;SDS011;15925;51.222;5.678;2022-12-07T05:52:59;15.57;;;4.32;;
28772;SDS011;15925;51.222;5.678;2022-12-07T05:55:25;8.18;;;3.60;;
28772;SDS011;15925;51.222;5.678;2022-12-07T05:57:51;13.13;;;4.00;;
28772;SDS011;15925;51.222;5.678;2022-12-07T06:00:35;8.73;;;4.13;;
28772;SDS011;15925;51.222;5.678;2022-12-07T06:03:01;11.77;;;3.58;;
28772;SDS011;15925;51.222;5.678;2022-12-07T06:05:27;5.77;;;3.87;;
28772;SDS011;15925;51.222;5.678;2022-12-07T06:07:53;9.43;;;2.60;;
28772;SDS011;15925;51.222;5.678;2022-12-07T06:10:18;5.20;;;3.90;;
28772;SDS011;15925;51.222;5.678;2022-12-07T06:12:44;4.35;;;2.92;;
28772;SDS011;15925;51.222;5.678;2022-12-07T06:15:11;5.50;;;2.75;;
28772;SDS011;15925;51.222;5.678;2022-12-07T06:17:38;5.40;;;3.35;;
28772;SDS011;15925;51.222;5.678;2022-12-07T06:20:04;12.43;;;4.00;;
28772;SDS011;15925;51.222;5.678;2022-12-07T06:22:30;8.52;;;4.20;;
28772;SDS011;15925;51.222;5.678;2022-12-07T06:24:56;7.55;;;2.92;;
28772;SDS011;15925;51.222;5.678;2022-12-07T06:27:22;7.43;;;2.57;;
28772;SDS011;15925;51.222;5.678;2022-12-07T06:29:48;12.57;;;2.70;;
28772;SDS011;15925;51.222;5.678;2022-12-07T06:32:14;4.13;;;2.47;;
28772;SDS011;15925;51.222;5.678;2022-12-07T06:34:40;4.17;;;2.63;;
28772;SDS011;15925;51.222;5.678;2022-12-07T06:37:06;3.40;;;2.20;;
28772;SDS011;15925;51.222;5.678;2022-12-07T06:39:32;2.90;;;2.63;;
28772;SDS011;15925;51.222;5.678;2022-12-07T06:41:57;5.87;;;2.93;;
28772;SDS011;15925;51.222;5.678;2022-12-07T06:44:24;4.80;;;2.92;;
28772;SDS011;15925;51.222;5.678;2022-12-07T06:46:50;8.40;;;3.03;;
28772;SDS011;15925;51.222;5.678;2022-12-07T06:49:17;8.63;;;2.55;;
28772;SDS011;15925;51.222;5.678;2022-12-07T06:51:43;7.40;;;3.07;;
28772;SDS011;15925;51.222;5.678;2022-12-07T06:54:09;4.73;;;2.30;;
28772;SDS011;15925;51.222;5.678;2022-12-07T06:59:01;5.63;;;3.20;;
28772;SDS011;15925;51.222;5.678;2022-12-07T07:01:27;4.68;;;2.60;;
28772;SDS011;15925;51.222;5.678;2022-12-07T07:03:53;8.37;;;3.50;;
28772;SDS011;15925;51.222;5.678;2022-12-07T07:06:19;11.60;;;4.27;;
28772;SDS011;15925;51.222;5.678;2022-12-07T07:08:45;12.67;;;3.87;;
28772;SDS011;15925;51.222;5.678;2022-12-07T07:11:10;11.63;;;4.87;;
28772;SDS011;15925;51.222;5.678;2022-12-07T07:13:36;5.57;;;3.30;;
28772;SDS011;15925;51.222;5.678;2022-12-07T07:16:02;4.10;;;2.67;;
28772;SDS011;15925;51.222;5.678;2022-12-07T07:18:29;5.13;;;2.92;;
28772;SDS011;15925;51.222;5.678;2022-12-07T07:20:54;7.70;;;3.57;;
28772;SDS011;15925;51.222;5.678;2022-12-07T07:23:20;5.90;;;3.70;;
28772;SDS011;15925;51.222;5.678;2022-12-07T07:25:47;7.05;;;3.67;;
28772;SDS011;15925;51.222;5.678;2022-12-07T07:28:13;6.63;;;2.90;;
28772;SDS011;15925;51.222;5.678;2022-12-07T07:30:39;6.57;;;3.22;;
28772;SDS011;15925;51.222;5.678;2022-12-07T07:33:05;14.73;;;4.10;;
28772;SDS011;15925;51.222;5.678;2022-12-07T07:35:32;6.03;;;4.20;;
28772;SDS011;15925;51.222;5.678;2022-12-07T07:37:58;7.13;;;2.75;;
28772;SDS011;15925;51.222;5.678;2022-12-07T07:40:25;6.85;;;3.40;;
28772;SDS011;15925;51.222;5.678;2022-12-07T07:42:52;8.45;;;4.25;;
28772;SDS011;15925;51.222;5.678;2022-12-07T07:45:19;7.20;;;4.00;;
28772;SDS011;15925;51.222;5.678;2022-12-07T07:47:46;7.97;;;3.55;;
28772;SDS011;15925;51.222;5.678;2022-12-07T07:50:12;9.77;;;3.53;;
28772;SDS011;15925;51.222;5.678;2022-12-07T07:52:38;8.40;;;3.37;;
28772;SDS011;15925;51.222;5.678;2022-12-07T07:55:04;6.43;;;3.70;;
28772;SDS011;15925;51.222;5.678;2022-12-07T07:57:30;14.65;;;5.15;;
28772;SDS011;15925;51.222;5.678;2022-12-07T07:59:56;6.38;;;3.72;;
28772;SDS011;15925;51.222;5.678;2022-12-07T08:02:22;8.87;;;5.17;;
28772;SDS011;15925;51.222;5.678;2022-12-07T08:04:48;17.40;;;5.97;;
28772;SDS011;15925;51.222;5.678;2022-12-07T08:07:14;15.02;;;5.43;;
28772;SDS011;15925;51.222;5.678;2022-12-07T08:09:40;20.10;;;6.95;;
28772;SDS011;15925;51.222;5.678;2022-12-07T08:12:07;19.63;;;8.13;;
28772;SDS011;15925;51.222;5.678;2022-12-07T08:14:33;24.70;;;8.60;;
28772;SDS011;15925;51.222;5.678;2022-12-07T08:16:59;16.55;;;7.28;;
28772;SDS011;15925;51.222;5.678;2022-12-07T08:19:25;17.92;;;6.55;;
28772;SDS011;15925;51.222;5.678;2022-12-07T08:21:51;23.25;;;9.10;;
28772;SDS011;15925;51.222;5.678;2022-12-07T08:24:17;16.65;;;7.13;;
28772;SDS011;15925;51.222;5.678;2022-12-07T08:26:43;20.55;;;7.25;;
28772;SDS011;15925;51.222;5.678;2022-12-07T08:29:09;18.30;;;6.72;;
28772;SDS011;15925;51.222;5.678;2022-12-07T08:31:35;16.90;;;7.23;;
28772;SDS011;15925;51.222;5.678;2022-12-07T08:34:01;23.42;;;7.45;;
28772;SDS011;15925;51.222;5.678;2022-12-07T08:36:27;53.13;;;8.20;;
28772;SDS011;15925;51.222;5.678;2022-12-07T08:38:52;25.20;;;8.20;;
28772;SDS011;15925;51.222;5.678;2022-12-07T08:41:18;22.87;;;9.07;;
28772;SDS011;15925;51.222;5.678;2022-12-07T08:43:44;15.55;;;7.20;;
28772;SDS011;15925;51.222;5.678;2022-12-07T08:48:45;12.10;;;6.57;;
28772;SDS011;15925;51.222;5.678;2022-12-07T08:51:17;25.13;;;7.10;;
28772;SDS011;15925;51.222;5.678;2022-12-07T08:53:44;14.20;;;7.20;;
28772;SDS011;15925;51.222;5.678;2022-12-07T08:56:09;9.27;;;4.57;;
28772;SDS011;15925;51.222;5.678;2022-12-07T08:58:36;17.23;;;7.45;;
28772;SDS011;15925;51.222;5.678;2022-12-07T09:01:03;13.48;;;6.50;;
28772;SDS011;15925;51.222;5.678;2022-12-07T09:05:56;11.35;;;5.53;;
28772;SDS011;15925;51.222;5.678;2022-12-07T09:10:51;7.78;;;4.47;;
28772;SDS011;15925;51.222;5.678;2022-12-07T09:13:17;12.00;;;5.23;;
28772;SDS011;15925;51.222;5.678;2022-12-07T09:15:42;9.77;;;4.30;;
28772;SDS011;15925;51.222;5.678;2022-12-07T09:18:08;23.15;;;5.63;;
28772;SDS011;15925;51.222;5.678;2022-12-07T09:20:34;8.30;;;5.17;;
28772;SDS011;15925;51.222;5.678;2022-12-07T09:23:00;7.13;;;4.67;;
28772;SDS011;15925;51.222;5.678;2022-12-07T09:25:26;10.83;;;5.20;;
28772;SDS011;15925;51.222;5.678;2022-12-07T09:27:55;8.73;;;4.27;;
28772;SDS011;15925;51.222;5.678;2022-12-07T09:30:22;9.68;;;4.32;;
28772;SDS011;15925;51.222;5.678;2022-12-07T09:32:47;16.17;;;4.43;;
28772;SDS011;15925;51.222;5.678;2022-12-07T09:35:13;10.90;;;4.13;;
28772;SDS011;15925;51.222;5.678;2022-12-07T09:37:39;9.52;;;5.35;;
28772;SDS011;15925;51.222;5.678;2022-12-07T09:40:05;17.30;;;5.13;;
28772;SDS011;15925;51.222;5.678;2022-12-07T09:42:33;9.02;;;4.80;;
28772;SDS011;15925;51.222;5.678;2022-12-07T09:45:05;9.05;;;3.72;;
28772;SDS011;15925;51.222;5.678;2022-12-07T09:47:39;13.80;;;4.18;;
28772;SDS011;15925;51.222;5.678;2022-12-07T09:50:13;17.08;;;5.28;;
28772;SDS011;15925;51.222;5.678;2022-12-07T09:52:42;7.50;;;3.80;;
28772;SDS011;15925;51.222;5.678;2022-12-07T09:55:12;6.95;;;3.78;;
28772;SDS011;15925;51.222;5.678;2022-12-07T09:57:40;7.47;;;3.30;;
28772;SDS011;15925;51.222;5.678;2022-12-07T10:00:15;7.38;;;3.63;;
28772;SDS011;15925;51.222;5.678;2022-12-07T10:02:43;11.07;;;4.22;;
28772;SDS011;15925;51.222;5.678;2022-12-07T10:05:58;8.82;;;3.67;;
28772;SDS011;15925;51.222;5.678;2022-12-07T10:08:03;5.32;;;3.58;;
28772;SDS011;15925;51.222;5.678;2022-12-07T10:10:30;6.55;;;3.30;;
28772;SDS011;15925;51.222;5.678;2022-12-07T10:13:02;7.38;;;3.80;;
28772;SDS011;15925;51.222;5.678;2022-12-07T10:18:19;8.80;;;4.00;;
28772;SDS011;15925;51.222;5.678;2022-12-07T10:20:59;10.13;;;4.05;;
28772;SDS011;15925;51.222;5.678;2022-12-07T10:23:37;9.30;;;3.72;;
28772;SDS011;15925;51.222;5.678;2022-12-07T10:29:21;8.00;;;3.33;;
28772;SDS011;15925;51.222;5.678;2022-12-07T10:31:55;23.92;;;4.70;;
28772;SDS011;15925;51.222;5.678;2022-12-07T10:34:27;5.78;;;3.13;;
28772;SDS011;15925;51.222;5.678;2022-12-07T10:37:06;8.85;;;3.10;;
28772;SDS011;15925;51.222;5.678;2022-12-07T10:42:19;9.52;;;3.15;;
28772;SDS011;15925;51.222;5.678;2022-12-07T10:53:39;22.92;;;3.05;;
28772;SDS011;15925;51.222;5.678;2022-12-07T10:59:08;5.63;;;2.55;;
28772;SDS011;15925;51.222;5.678;2022-12-07T11:01:51;8.90;;;2.28;;
28772;SDS011;15925;51.222;5.678;2022-12-07T11:04:29;3.55;;;2.10;;
28772;SDS011;15925;51.222;5.678;2022-12-07T11:10:05;3.53;;;2.60;;
28772;SDS011;15925;51.222;5.678;2022-12-07T11:18:17;3.97;;;1.30;;
28772;SDS011;15925;51.222;5.678;2022-12-07T11:23:52;5.97;;;2.00;;
28772;SDS011;15925;51.222;5.678;2022-12-07T11:37:28;15.30;;;2.22;;
28772;SDS011;15925;51.222;5.678;2022-12-07T11:40:03;9.57;;;2.53;;
28772;SDS011;15925;51.222;5.678;2022-12-07T11:42:39;2.90;;;1.70;;
28772;SDS011;15925;51.222;5.678;2022-12-07T11:50:56;5.38;;;1.73;;
28772;SDS011;15925;51.222;5.678;2022-12-07T11:53:35;4.47;;;2.00;;
28772;SDS011;15925;51.222;5.678;2022-12-07T11:56:22;4.78;;;2.10;;
28772;SDS011;15925;51.222;5.678;2022-12-07T11:58:55;16.63;;;3.38;;
28772;SDS011;15925;51.222;5.678;2022-12-07T12:02:00;18.23;;;3.20;;
28772;SDS011;15925;51.222;5.678;2022-12-07T12:04:27;11.38;;;2.25;;
28772;SDS011;15925;51.222;5.678;2022-12-07T12:07:10;13.30;;;2.83;;
28772;SDS011;15925;51.222;5.678;2022-12-07T12:09:45;8.07;;;2.95;;
28772;SDS011;15925;51.222;5.678;2022-12-07T12:12:22;5.47;;;1.63;;
28772;SDS011;15925;51.222;5.678;2022-12-07T12:15:31;6.05;;;1.90;;
28772;SDS011;15925;51.222;5.678;2022-12-07T12:20:55;3.33;;;1.60;;
28772;SDS011;15925;51.222;5.678;2022-12-07T12:23:23;8.52;;;1.73;;
28772;SDS011;15925;51.222;5.678;2022-12-07T12:25:54;4.22;;;2.15;;
28772;SDS011;15925;51.222;5.678;2022-12-07T12:28:25;12.35;;;2.63;;
28772;SDS011;15925;51.222;5.678;2022-12-07T12:31:06;6.65;;;2.28;;
28772;SDS011;15925;51.222;5.678;2022-12-07T12:33:44;2.88;;;1.83;;
28772;SDS011;15925;51.222;5.678;2022-12-07T12:42:06;9.23;;;2.10;;
28772;SDS011;15925;51.222;5.678;2022-12-07T12:57:48;10.88;;;2.30;;
28772;SDS011;15925;51.222;5.678;2022-12-07T13:04:27;13.65;;;1.75;;
28772;SDS011;15925;51.222;5.678;2022-12-07T13:06:53;4.97;;;1.33;;
28772;SDS011;15925;51.222;5.678;2022-12-07T13:09:41;21.48;;;1.90;;
28772;SDS011;15925;51.222;5.678;2022-12-07T13:12:12;16.00;;;1.60;;
28772;SDS011;15925;51.222;5.678;2022-12-07T13:14:41;6.22;;;1.23;;
28772;SDS011;15925;51.222;5.678;2022-12-07T13:17:11;4.28;;;1.20;;
28772;SDS011;15925;51.222;5.678;2022-12-07T13:27:50;10.00;;;1.30;;
28772;SDS011;15925;51.222;5.678;2022-12-07T13:30:27;12.85;;;1.10;;
28772;SDS011;15925;51.222;5.678;2022-12-07T13:32:55;1.85;;;1.10;;
28772;SDS011;15925;51.222;5.678;2022-12-07T13:35:27;12.95;;;1.50;;
28772;SDS011;15925;51.222;5.678;2022-12-07T13:37:58;7.97;;;1.58;;
28772;SDS011;15925;51.222;5.678;2022-12-07T13:40:26;7.00;;;1.60;;
28772;SDS011;15925;51.222;5.678;2022-12-07T13:43:02;5.00;;;1.77;;
28772;SDS011;15925;51.222;5.678;2022-12-07T13:45:30;12.38;;;1.17;;
28772;SDS011;15925;51.222;5.678;2022-12-07T13:51:00;1.75;;;0.95;;
28772;SDS011;15925;51.222;5.678;2022-12-07T13:53:28;7.55;;;2.33;;
28772;SDS011;15925;51.222;5.678;2022-12-07T13:55:59;3.45;;;1.20;;
28772;SDS011;15925;51.222;5.678;2022-12-07T13:58:26;8.95;;;1.95;;
28772;SDS011;15925;51.222;5.678;2022-12-07T14:00:55;6.15;;;1.55;;
28772;SDS011;15925;51.222;5.678;2022-12-07T14:06:03;5.05;;;1.13;;
28772;SDS011;15925;51.222;5.678;2022-12-07T14:08:29;2.13;;;1.13;;
28772;SDS011;15925;51.222;5.678;2022-12-07T14:10:56;6.57;;;2.10;;
28772;SDS011;15925;51.222;5.678;2022-12-07T14:16:03;6.20;;;1.98;;
28772;SDS011;15925;51.222;5.678;2022-12-07T14:18:41;4.80;;;1.45;;
28772;SDS011;15925;51.222;5.678;2022-12-07T14:23:41;4.60;;;1.10;;
28772;SDS011;15925;51.222;5.678;2022-12-07T14:26:08;0.82;;;0.73;;
28772;SDS011;15925;51.222;5.678;2022-12-07T14:28:38;3.95;;;1.60;;
28772;SDS011;15925;51.222;5.678;2022-12-07T14:31:18;9.02;;;1.77;;
28772;SDS011;15925;51.222;5.678;2022-12-07T14:33:49;6.45;;;1.42;;
28772;SDS011;15925;51.222;5.678;2022-12-07T14:36:15;1.80;;;0.73;;
28772;SDS011;15925;51.222;5.678;2022-12-07T14:38:41;4.15;;;1.52;;
28772;SDS011;15925;51.222;5.678;2022-12-07T14:41:10;8.95;;;1.55;;
28772;SDS011;15925;51.222;5.678;2022-12-07T14:43:58;14.38;;;1.48;;
28772;SDS011;15925;51.222;5.678;2022-12-07T14:46:24;3.03;;;0.80;;
28772;SDS011;15925;51.222;5.678;2022-12-07T14:48:50;1.63;;;1.03;;
28772;SDS011;15925;51.222;5.678;2022-12-07T14:51:16;1.63;;;0.90;;
28772;SDS011;15925;51.222;5.678;2022-12-07T14:53:52;4.07;;;0.97;;
28772;SDS011;15925;51.222;5.678;2022-12-07T14:56:18;3.92;;;0.98;;
28772;SDS011;15925;51.222;5.678;2022-12-07T14:58:44;0.40;;;0.40;;
28772;SDS011;15925;51.222;5.678;2022-12-07T15:01:13;0.60;;;0.50;;
28772;SDS011;15925;51.222;5.678;2022-12-07T15:03:39;1.20;;;0.70;;
28772;SDS011;15925;51.222;5.678;2022-12-07T15:06:05;1.63;;;0.70;;
28772;SDS011;15925;51.222;5.678;2022-12-07T15:10:57;3.22;;;1.33;;
28772;SDS011;15925;51.222;5.678;2022-12-07T15:13:23;2.77;;;0.57;;
28772;SDS011;15925;51.222;5.678;2022-12-07T15:16:10;1.67;;;0.75;;
28772;SDS011;15925;51.222;5.678;2022-12-07T15:18:41;2.85;;;1.15;;
28772;SDS011;15925;51.222;5.678;2022-12-07T15:21:11;3.23;;;0.90;;
28772;SDS011;15925;51.222;5.678;2022-12-07T15:23:39;2.53;;;1.20;;
28772;SDS011;15925;51.222;5.678;2022-12-07T15:26:04;9.63;;;1.30;;
28772;SDS011;15925;51.222;5.678;2022-12-07T15:28:30;4.47;;;1.17;;
28772;SDS011;15925;51.222;5.678;2022-12-07T15:30:56;3.27;;;1.33;;
28772;SDS011;15925;51.222;5.678;2022-12-07T15:33:22;1.53;;;1.07;;
28772;SDS011;15925;51.222;5.678;2022-12-07T15:35:47;2.93;;;1.63;;
28772;SDS011;15925;51.222;5.678;2022-12-07T15:38:13;2.07;;;0.93;;
28772;SDS011;15925;51.222;5.678;2022-12-07T15:40:39;3.87;;;1.20;;
28772;SDS011;15925;51.222;5.678;2022-12-07T15:43:05;4.90;;;2.10;;
28772;SDS011;15925;51.222;5.678;2022-12-07T15:45:50;4.05;;;1.35;;
28772;SDS011;15925;51.222;5.678;2022-12-07T15:48:16;2.30;;;1.23;;
28772;SDS011;15925;51.222;5.678;2022-12-07T15:50:42;1.57;;;1.23;;
28772;SDS011;15925;51.222;5.678;2022-12-07T15:53:08;3.40;;;1.53;;
28772;SDS011;15925;51.222;5.678;2022-12-07T15:55:33;3.17;;;1.30;;
28772;SDS011;15925;51.222;5.678;2022-12-07T15:57:59;3.47;;;1.77;;
28772;SDS011;15925;51.222;5.678;2022-12-07T16:00:26;2.60;;;1.30;;
28772;SDS011;15925;51.222;5.678;2022-12-07T16:02:52;11.00;;;1.40;;
28772;SDS011;15925;51.222;5.678;2022-12-07T16:05:17;2.20;;;1.70;;
28772;SDS011;15925;51.222;5.678;2022-12-07T16:07:43;5.07;;;3.17;;
28772;SDS011;15925;51.222;5.678;2022-12-07T16:10:11;4.13;;;1.83;;
28772;SDS011;15925;51.222;5.678;2022-12-07T16:12:37;1.97;;;1.50;;
28772;SDS011;15925;51.222;5.678;2022-12-07T16:15:03;6.13;;;2.13;;
28772;SDS011;15925;51.222;5.678;2022-12-07T16:17:29;2.35;;;1.65;;
28772;SDS011;15925;51.222;5.678;2022-12-07T16:19:54;4.87;;;2.00;;
28772;SDS011;15925;51.222;5.678;2022-12-07T16:22:20;7.90;;;2.73;;
28772;SDS011;15925;51.222;5.678;2022-12-07T16:24:46;2.60;;;1.87;;
28772;SDS011;15925;51.222;5.678;2022-12-07T16:27:12;7.53;;;2.45;;
28772;SDS011;15925;51.222;5.678;2022-12-07T16:29:38;3.37;;;2.10;;
28772;SDS011;15925;51.222;5.678;2022-12-07T16:32:03;5.10;;;3.40;;
28772;SDS011;15925;51.222;5.678;2022-12-07T16:34:29;7.32;;;2.13;;
28772;SDS011;15925;51.222;5.678;2022-12-07T16:36:55;5.07;;;2.33;;
28772;SDS011;15925;51.222;5.678;2022-12-07T16:39:21;5.93;;;2.73;;
28772;SDS011;15925;51.222;5.678;2022-12-07T16:41:46;6.77;;;2.33;;
28772;SDS011;15925;51.222;5.678;2022-12-07T16:44:12;7.93;;;2.63;;
28772;SDS011;15925;51.222;5.678;2022-12-07T16:46:39;13.90;;;3.00;;
28772;SDS011;15925;51.222;5.678;2022-12-07T16:49:05;6.88;;;3.05;;
28772;SDS011;15925;51.222;5.678;2022-12-07T16:51:31;5.40;;;2.03;;
28772;SDS011;15925;51.222;5.678;2022-12-07T16:53:59;4.25;;;2.55;;
28772;SDS011;15925;51.222;5.678;2022-12-07T16:56:25;8.37;;;3.57;;
28772;SDS011;15925;51.222;5.678;2022-12-07T16:58:51;6.03;;;3.35;;
28772;SDS011;15925;51.222;5.678;2022-12-07T17:01:18;5.10;;;2.40;;
28772;SDS011;15925;51.222;5.678;2022-12-07T17:03:47;6.82;;;3.15;;
28772;SDS011;15925;51.222;5.678;2022-12-07T17:06:14;5.55;;;3.08;;
28772;SDS011;15925;51.222;5.678;2022-12-07T17:08:41;8.20;;;3.80;;
28772;SDS011;15925;51.222;5.678;2022-12-07T17:11:09;13.45;;;3.35;;
28772;SDS011;15925;51.222;5.678;2022-12-07T17:13:39;5.57;;;2.63;;
28772;SDS011;15925;51.222;5.678;2022-12-07T17:16:24;7.75;;;3.30;;
28772;SDS011;15925;51.222;5.678;2022-12-07T17:18:50;9.27;;;2.70;;